Sagittarian — WCY5210 — position and weather

sailwx.info

Track history (hours):
 
Tides and Currents Weather Stations Pressure Air Temp Water Temp Dewpoint Dewpoint Depression Visibility Wind Speed Wind Dir Waves Ship Positions

Sagittarian

Owner: TAURUS MARINE, SAN FRANCISCO, CA. More information available from US FCC via Universal Licensing System and Coast Guard Vessel Documentation Center.

Last reported at 2017-Nov-04 16:32 UTC. Time now 2017-Nov-18 17:48 UTC.
Position N 45°37' W 122°39'.
Warning: this ship's position is 14 days out of date.

; draft 3 m.

Type: Towing. MMSI: 366969510.

Date/timePositionNaut miles runAvg speedWind from/ knotsBaromVisibWave heightAir tempDewpointWater temp
2017-Nov-04 16:32N 45°37' W 122°39'0 0.0
2017-Nov-04 16:30N 45°37' W 122°39'0 0.0
2017-Nov-04 16:01N 45°37' W 122°39'0 0.0
2017-Nov-04 15:30N 45°37' W 122°39'0 0.0
2017-Nov-04 15:01N 45°37' W 122°39'0 0.0
2017-Nov-04 14:30N 45°37' W 122°39'0 0.0
2017-Nov-04 14:00N 45°37' W 122°39'0 0.1
2017-Nov-04 13:31N 45°37' W 122°39'0 0.1
2017-Nov-04 13:00N 45°37' W 122°39'0 0.0
2017-Nov-04 12:30N 45°37' W 122°39'0 0.1
2017-Nov-04 12:00N 45°37' W 122°39'0 0.1
2017-Nov-04 11:30N 45°37' W 122°39'1 2.7
2017-Nov-04 11:00N 45°37' W 122°41'4 8.8
2017-Nov-04 10:31N 45°40' W 122°46'6 9.6
2017-Nov-04 09:52N 45°46' W 122°46'3 9.6
2017-Nov-04 09:30N 45°49' W 122°48'4 8.9
2017-Nov-04 09:01N 45°53' W 122°48'4 9.0
2017-Nov-04 08:31N 45°58' W 122°49'5 9.0
2017-Nov-04 08:00N 46°02' W 122°53'4 8.4
2017-Nov-04 07:31N 46°05' W 122°55'4 8.7
2017-Nov-04 07:00N 46°08' W 123°00'4 8.4
2017-Nov-04 06:30N 46°10' W 123°06'4 7.9
2017-Nov-04 06:01N 46°11' W 123°11'4 8.3
2017-Nov-04 05:30N 46°09' W 123°16'4 8.4
2017-Nov-04 05:00N 46°09' W 123°23'4 7.6
2017-Nov-04 04:31N 46°12' W 123°26'4 7.7
2017-Nov-04 04:00N 46°16' W 123°27'612.2
2017-Nov-04 03:30N 46°15' W 123°36'2 3.4
2017-Nov-04 03:01N 46°16' W 123°39'4 8.3
2017-Nov-04 02:31N 46°14' W 123°44'4 8.2
2017-Nov-04 02:00N 46°12' W 123°49'3 6.8
2017-Nov-04 01:30N 46°11' W 123°54'3 5.3
2017-Nov-04 01:01N 46°13' W 123°57'2 4.7
2017-Nov-04 00:31N 46°14' W 123°60'2 4.0
2017-Nov-04 00:01N 46°15' W 124°02'2 4.4
2017-Nov-03 23:30N 46°15' W 124°05'4 8.1
2017-Nov-03 23:01N 46°12' W 124°09'6 9.7
2017-Nov-03 22:26N 46°07' W 124°14'4 9.8
2017-Nov-03 22:00N 46°04' W 124°16'510.1
2017-Nov-03 21:31N 45°59' W 124°17'510.4
2017-Nov-03 21:00N 45°53' W 124°18'510.3
2017-Nov-03 20:30N 45°48' W 124°18'510.0
2017-Nov-03 20:00N 45°43' W 124°17'5 9.6
2017-Nov-03 19:30N 45°38' W 124°17'7 9.4
2017-Nov-03 18:46N 45°31' W 124°17'423 9.8
2017-Nov-01 23:31N 38°30' W 123°36'010.6
2017-Nov-01 23:30N 38°30' W 123°36'511.0
2017-Nov-01 23:00N 38°25' W 123°32'510.6
2017-Nov-01 22:30N 38°21' W 123°28'510.6
2017-Nov-01 22:01N 38°17' W 123°24'510.6
2017-Nov-01 21:30N 38°12' W 123°20'510.9
2017-Nov-01 21:00N 38°08' W 123°16'510.8
2017-Nov-01 20:30N 38°03' W 123°12'510.7
2017-Nov-01 20:00N 37°60' W 123°08'510.7
2017-Nov-01 19:30N 37°57' W 123°02'510.9
2017-Nov-01 19:00N 37°54' W 122°56'27 1.6
2017-Nov-01 02:00N 37°46' W 122°23'0 0.0
2017-Nov-01 01:31N 37°46' W 122°23'0 0.0
2017-Nov-01 01:00N 37°46' W 122°23'0 0.0
2017-Nov-01 00:30N 37°46' W 122°23'0 0.0
2017-Nov-01 00:00N 37°46' W 122°23'0 0.0
2017-Oct-31 23:30N 37°46' W 122°23'0 0.0
2017-Oct-31 23:00N 37°46' W 122°23'0 0.0
2017-Oct-31 22:30N 37°46' W 122°23'0 0.0
2017-Oct-31 22:00N 37°46' W 122°23'0 0.0
2017-Oct-31 21:30N 37°46' W 122°23'0 0.0
2017-Oct-31 21:00N 37°46' W 122°23'0 0.0
2017-Oct-31 20:30N 37°46' W 122°23'0 0.0
2017-Oct-30 21:14N 37°46' W 122°23'0 0.0
2017-Oct-30 21:00N 37°46' W 122°23'0 0.0
2017-Oct-30 20:30N 37°46' W 122°23'0 0.0
2017-Oct-30 20:00N 37°46' W 122°23'0 0.0
2017-Oct-30 19:30N 37°46' W 122°23'0 0.0
2017-Oct-30 19:00N 37°46' W 122°23'0 0.0
2017-Oct-30 01:05N 37°46' W 122°23'0 0.1
2017-Oct-30 01:00N 37°46' W 122°23'3 5.7
2017-Oct-30 00:31N 37°49' W 122°24'4 8.0
2017-Oct-30 00:01N 37°53' W 122°24'4 7.5
2017-Oct-29 23:30N 37°57' W 122°26'4 7.8
2017-Oct-29 23:00N 38°00' W 122°24'4 8.4
2017-Oct-29 22:29N 38°03' W 122°19'4 4.8
2017-Oct-29 21:38N 38°05' W 122°15'0 0.3
2017-Oct-29 21:27N 38°05' W 122°16'7 3.2
2017-Oct-29 19:18N 38°02' W 122°08'1 2.3
2017-Oct-29 19:00N 38°02' W 122°09'4 2.7
2017-Oct-29 17:37N 38°04' W 122°13'1 8.1
2017-Oct-29 17:31N 38°04' W 122°14'4 8.0
2017-Oct-29 17:01N 38°03' W 122°19'4 7.8
2017-Oct-29 16:30N 38°01' W 122°24'4 7.4
2017-Oct-29 16:00N 37°58' W 122°26'3 5.3
2017-Oct-29 15:30N 37°55' W 122°25'0 0.3
2017-Oct-29 15:00N 37°55' W 122°25'1 2.4
2017-Oct-29 14:31N 37°54' W 122°24'510.5
2017-Oct-29 14:01N 37°49' W 122°23'3 5.2
2017-Oct-29 13:31N 37°46' W 122°23'0 0.0
2017-Oct-27 21:27N 37°46' W 122°23'0 0.0
2017-Oct-27 21:00N 37°46' W 122°23'0 0.0
2017-Oct-27 20:30N 37°46' W 122°23'0 0.0
2017-Oct-27 20:00N 37°46' W 122°23'0 0.0
2017-Oct-27 19:30N 37°46' W 122°23'0 0.0
2017-Oct-27 19:00N 37°46' W 122°23'0 0.0
2017-Oct-27 18:30N 37°46' W 122°23'0 0.0
2017-Oct-27 18:00N 37°46' W 122°23'0 0.0
2017-Oct-27 17:31N 37°46' W 122°23'0 0.0
2017-Oct-27 17:00N 37°46' W 122°23'0 0.0
2017-Oct-27 16:30N 37°46' W 122°23'0 0.0
2017-Oct-27 16:00N 37°46' W 122°23'0 0.0
2017-Oct-27 15:30N 37°46' W 122°23'0 0.0
2017-Oct-27 15:00N 37°46' W 122°23'0 0.0
2017-Oct-27 14:30N 37°46' W 122°23'0 0.0
2017-Oct-27 14:00N 37°46' W 122°23'  
Track history (hours):
 
Tides and Currents Weather Stations Pressure Air Temp Water Temp Dewpoint Dewpoint Depression Visibility Wind Speed Wind Dir Waves Ship Positions

Sagittarian

Owner: TAURUS MARINE, SAN FRANCISCO, CA. More information available from US FCC via Universal Licensing System and Coast Guard Vessel Documentation Center.

Last reported at 2017-Nov-04 16:32 UTC. Time now 2017-Nov-18 17:48 UTC.
Position N 45°37' W 122°39'.
Warning: this ship's position is 14 days out of date.

; draft 3 m.

Type: Towing. MMSI: 366969510.

Date/timePositionNaut miles runAvg speedWind from/ knotsBaromVisibWave heightAir tempDewpointWater temp
2017-Nov-04 16:32N 45°37' W 122°39'0 0.0
2017-Nov-04 16:30N 45°37' W 122°39'0 0.0
2017-Nov-04 16:01N 45°37' W 122°39'0 0.0
2017-Nov-04 15:30N 45°37' W 122°39'0 0.0
2017-Nov-04 15:01N 45°37' W 122°39'0 0.0
2017-Nov-04 14:30N 45°37' W 122°39'0 0.0
2017-Nov-04 14:00N 45°37' W 122°39'0 0.1
2017-Nov-04 13:31N 45°37' W 122°39'0 0.1
2017-Nov-04 13:00N 45°37' W 122°39'0 0.0
2017-Nov-04 12:30N 45°37' W 122°39'0 0.1
2017-Nov-04 12:00N 45°37' W 122°39'0 0.1
2017-Nov-04 11:30N 45°37' W 122°39'1 2.7
2017-Nov-04 11:00N 45°37' W 122°41'4 8.8
2017-Nov-04 10:31N 45°40' W 122°46'6 9.6
2017-Nov-04 09:52N 45°46' W 122°46'3 9.6
2017-Nov-04 09:30N 45°49' W 122°48'4 8.9
2017-Nov-04 09:01N 45°53' W 122°48'4 9.0
2017-Nov-04 08:31N 45°58' W 122°49'5 9.0
2017-Nov-04 08:00N 46°02' W 122°53'4 8.4
2017-Nov-04 07:31N 46°05' W 122°55'4 8.7
2017-Nov-04 07:00N 46°08' W 123°00'4 8.4
2017-Nov-04 06:30N 46°10' W 123°06'4 7.9
2017-Nov-04 06:01N 46°11' W 123°11'4 8.3
2017-Nov-04 05:30N 46°09' W 123°16'4 8.4
2017-Nov-04 05:00N 46°09' W 123°23'4 7.6
2017-Nov-04 04:31N 46°12' W 123°26'4 7.7
2017-Nov-04 04:00N 46°16' W 123°27'612.2
2017-Nov-04 03:30N 46°15' W 123°36'2 3.4
2017-Nov-04 03:01N 46°16' W 123°39'4 8.3
2017-Nov-04 02:31N 46°14' W 123°44'4 8.2
2017-Nov-04 02:00N 46°12' W 123°49'3 6.8
2017-Nov-04 01:30N 46°11' W 123°54'3 5.3
2017-Nov-04 01:01N 46°13' W 123°57'2 4.7
2017-Nov-04 00:31N 46°14' W 123°60'2 4.0
2017-Nov-04 00:01N 46°15' W 124°02'2 4.4
2017-Nov-03 23:30N 46°15' W 124°05'4 8.1
2017-Nov-03 23:01N 46°12' W 124°09'6 9.7
2017-Nov-03 22:26N 46°07' W 124°14'4 9.8
2017-Nov-03 22:00N 46°04' W 124°16'510.1
2017-Nov-03 21:31N 45°59' W 124°17'510.4
2017-Nov-03 21:00N 45°53' W 124°18'510.3
2017-Nov-03 20:30N 45°48' W 124°18'510.0
2017-Nov-03 20:00N 45°43' W 124°17'5 9.6
2017-Nov-03 19:30N 45°38' W 124°17'7 9.4
2017-Nov-03 18:46N 45°31' W 124°17'423 9.8
2017-Nov-01 23:31N 38°30' W 123°36'010.6
2017-Nov-01 23:30N 38°30' W 123°36'511.0
2017-Nov-01 23:00N 38°25' W 123°32'510.6
2017-Nov-01 22:30N 38°21' W 123°28'510.6
2017-Nov-01 22:01N 38°17' W 123°24'510.6
2017-Nov-01 21:30N 38°12' W 123°20'510.9
2017-Nov-01 21:00N 38°08' W 123°16'510.8
2017-Nov-01 20:30N 38°03' W 123°12'510.7
2017-Nov-01 20:00N 37°60' W 123°08'510.7
2017-Nov-01 19:30N 37°57' W 123°02'510.9
2017-Nov-01 19:00N 37°54' W 122°56'27 1.6
2017-Nov-01 02:00N 37°46' W 122°23'0 0.0
2017-Nov-01 01:31N 37°46' W 122°23'0 0.0
2017-Nov-01 01:00N 37°46' W 122°23'0 0.0
2017-Nov-01 00:30N 37°46' W 122°23'0 0.0
2017-Nov-01 00:00N 37°46' W 122°23'0 0.0
2017-Oct-31 23:30N 37°46' W 122°23'0 0.0
2017-Oct-31 23:00N 37°46' W 122°23'0 0.0
2017-Oct-31 22:30N 37°46' W 122°23'0 0.0
2017-Oct-31 22:00N 37°46' W 122°23'0 0.0
2017-Oct-31 21:30N 37°46' W 122°23'0 0.0
2017-Oct-31 21:00N 37°46' W 122°23'0 0.0
2017-Oct-31 20:30N 37°46' W 122°23'0 0.0
2017-Oct-30 21:14N 37°46' W 122°23'0 0.0
2017-Oct-30 21:00N 37°46' W 122°23'0 0.0
2017-Oct-30 20:30N 37°46' W 122°23'0 0.0
2017-Oct-30 20:00N 37°46' W 122°23'0 0.0
2017-Oct-30 19:30N 37°46' W 122°23'0 0.0
2017-Oct-30 19:00N 37°46' W 122°23'0 0.0
2017-Oct-30 01:05N 37°46' W 122°23'0 0.1
2017-Oct-30 01:00N 37°46' W 122°23'3 5.7
2017-Oct-30 00:31N 37°49' W 122°24'4 8.0
2017-Oct-30 00:01N 37°53' W 122°24'4 7.5
2017-Oct-29 23:30N 37°57' W 122°26'4 7.8
2017-Oct-29 23:00N 38°00' W 122°24'4 8.4
2017-Oct-29 22:29N 38°03' W 122°19'4 4.8
2017-Oct-29 21:38N 38°05' W 122°15'0 0.3
2017-Oct-29 21:27N 38°05' W 122°16'7 3.2
2017-Oct-29 19:18N 38°02' W 122°08'1 2.3
2017-Oct-29 19:00N 38°02' W 122°09'4 2.7
2017-Oct-29 17:37N 38°04' W 122°13'1 8.1
2017-Oct-29 17:31N 38°04' W 122°14'4 8.0
2017-Oct-29 17:01N 38°03' W 122°19'4 7.8
2017-Oct-29 16:30N 38°01' W 122°24'4 7.4
2017-Oct-29 16:00N 37°58' W 122°26'3 5.3
2017-Oct-29 15:30N 37°55' W 122°25'0 0.3
2017-Oct-29 15:00N 37°55' W 122°25'1 2.4
2017-Oct-29 14:31N 37°54' W 122°24'510.5
2017-Oct-29 14:01N 37°49' W 122°23'3 5.2
2017-Oct-29 13:31N 37°46' W 122°23'0 0.0
2017-Oct-27 21:27N 37°46' W 122°23'0 0.0
2017-Oct-27 21:00N 37°46' W 122°23'0 0.0
2017-Oct-27 20:30N 37°46' W 122°23'0 0.0
2017-Oct-27 20:00N 37°46' W 122°23'0 0.0
2017-Oct-27 19:30N 37°46' W 122°23'0 0.0
2017-Oct-27 19:00N 37°46' W 122°23'0 0.0
2017-Oct-27 18:30N 37°46' W 122°23'0 0.0
2017-Oct-27 18:00N 37°46' W 122°23'0 0.0
2017-Oct-27 17:31N 37°46' W 122°23'0 0.0
2017-Oct-27 17:00N 37°46' W 122°23'0 0.0
2017-Oct-27 16:30N 37°46' W 122°23'0 0.0
2017-Oct-27 16:00N 37°46' W 122°23'0 0.0
2017-Oct-27 15:30N 37°46' W 122°23'0 0.0
2017-Oct-27 15:00N 37°46' W 122°23'0 0.0
2017-Oct-27 14:30N 37°46' W 122°23'0 0.0
2017-Oct-27 14:00N 37°46' W 122°23'  

Dump ship's entire track history